createdAt,value
2018-11-25T00:00:56.959Z,17.65
2018-11-25T00:03:26.249Z,24.15
2018-11-25T00:05:55.443Z,14.98
2018-11-25T00:08:24.652Z,16.65
2018-11-25T00:10:53.848Z,13.30
2018-11-25T00:13:23.120Z,20.52
2018-11-25T00:15:52.660Z,15.98
2018-11-25T00:18:22.614Z,17.52
2018-11-25T00:20:52.630Z,15.10
2018-11-25T00:23:23.687Z,14.43
2018-11-25T00:25:53.228Z,16.60
2018-11-25T00:28:22.783Z,13.00
2018-11-25T00:30:52.117Z,15.00
2018-11-25T00:33:22.338Z,16.25
2018-11-25T00:35:51.843Z,11.57
2018-11-25T00:38:21.026Z,16.20
2018-11-25T00:40:51.239Z,9.10
2018-11-25T00:43:20.681Z,11.20
2018-11-25T00:45:50.884Z,11.28
2018-11-25T00:48:20.079Z,15.32
2018-11-25T00:50:49.883Z,13.85
2018-11-25T00:53:20.286Z,13.20
2018-11-25T00:55:49.954Z,13.30
2018-11-25T00:58:19.226Z,19.95
2018-11-25T01:00:50.207Z,15.70
2018-11-25T01:03:19.498Z,15.32
2018-11-25T01:05:48.678Z,11.50
2018-11-25T01:08:19.483Z,12.93
2018-11-25T01:10:48.707Z,13.35
2018-11-25T01:13:18.610Z,20.37
2018-11-25T01:15:48.027Z,15.08
2018-11-25T01:18:17.684Z,11.05
2018-11-25T01:20:48.624Z,12.30
2018-11-25T01:23:18.185Z,14.33
2018-11-25T01:25:47.407Z,13.93
2018-11-25T01:28:16.627Z,16.20
2018-11-25T01:30:45.841Z,14.10
2018-11-25T01:33:15.303Z,19.00
2018-11-25T01:35:45.401Z,19.15
2018-11-25T01:38:14.704Z,16.48
2018-11-25T01:40:44.355Z,17.70
2018-11-25T01:43:14.989Z,13.58
2018-11-25T01:45:45.240Z,16.65
2018-11-25T01:48:15.304Z,15.80
2018-11-25T01:50:44.525Z,12.93
2018-11-25T01:53:13.919Z,13.45
2018-11-25T01:55:44.294Z,13.32
2018-11-25T01:58:13.558Z,21.52
2018-11-25T02:00:42.794Z,13.75
2018-11-25T02:03:12.158Z,13.48
2018-11-25T02:05:41.405Z,10.93
2018-11-25T02:08:10.800Z,9.83
2018-11-25T02:10:40.306Z,12.93
2018-11-25T02:13:09.598Z,11.63
2018-11-25T02:15:38.844Z,11.80
2018-11-25T02:18:08.465Z,10.15
2018-11-25T02:20:38.747Z,12.40
2018-11-25T02:23:08.576Z,12.03
2018-11-25T02:25:37.750Z,17.05
2018-11-25T02:28:07.072Z,11.45
2018-11-25T02:30:36.347Z,10.80
2018-11-25T02:33:05.732Z,13.72
2018-11-25T02:35:35.180Z,14.18
2018-11-25T02:38:04.576Z,12.73
2018-11-25T02:40:33.811Z,15.13
2018-11-25T02:43:03.223Z,13.95
2018-11-25T02:45:32.523Z,15.20
2018-11-25T02:48:02.282Z,11.75
2018-11-25T02:50:31.640Z,11.80
2018-11-25T02:53:04.627Z,17.65
2018-11-25T02:55:33.876Z,13.18
2018-11-25T02:58:04.137Z,12.40
2018-11-25T03:00:33.380Z,10.98
2018-11-25T03:03:03.352Z,11.60
2018-11-25T03:05:32.653Z,12.88
2018-11-25T03:08:01.930Z,12.25
2018-11-25T03:10:31.381Z,11.85
2018-11-25T03:13:05.952Z,12.43
2018-11-25T03:15:35.193Z,15.58
2018-11-25T03:18:04.486Z,12.85
2018-11-25T03:20:33.681Z,14.60
2018-11-25T03:23:03.062Z,15.95
2018-11-25T03:25:32.278Z,14.05
2018-11-25T03:28:01.467Z,13.83
2018-11-25T03:30:30.623Z,13.45
2018-11-25T03:32:59.952Z,13.83
2018-11-25T03:35:29.185Z,15.45
2018-11-25T03:37:58.426Z,20.25
2018-11-25T03:40:27.646Z,16.42
2018-11-25T03:42:57.771Z,17.62
2018-11-25T03:45:26.979Z,15.50
2018-11-25T03:47:57.244Z,14.47
2018-11-25T03:50:26.564Z,16.52
2018-11-25T03:52:57.896Z,19.23
2018-11-25T03:55:27.894Z,13.78
2018-11-25T03:57:57.317Z,16.17
2018-11-25T04:00:27.580Z,15.38
2018-11-25T04:03:05.067Z,21.33
2018-11-25T04:05:34.317Z,19.27
2018-11-25T04:08:07.452Z,14.63
2018-11-25T04:10:36.649Z,14.30
2018-11-25T04:13:20.625Z,17.73
2018-11-25T04:15:50.153Z,16.70
2018-11-25T04:18:19.499Z,18.92
2018-11-25T04:20:48.710Z,16.73
2018-11-25T04:23:18.639Z,22.42
2018-11-25T04:25:48.101Z,16.52
2018-11-25T04:28:17.327Z,23.12
2018-11-25T04:30:47.650Z,16.93
2018-11-25T04:33:16.830Z,16.05
2018-11-25T04:35:46.054Z,15.80
2018-11-25T04:38:16.631Z,21.12
2018-11-25T04:40:45.851Z,19.62
2018-11-25T04:43:15.129Z,20.60
2018-11-25T04:45:44.372Z,17.57
2018-11-25T04:48:13.599Z,16.90
2018-11-25T04:50:43.393Z,18.67
2018-11-25T04:53:12.755Z,16.45
2018-11-25T04:55:42.011Z,20.00
2018-11-25T04:58:12.101Z,16.37
2018-11-25T05:00:41.279Z,17.23
2018-11-25T05:03:10.570Z,18.15
2018-11-25T05:05:40.473Z,18.60
2018-11-25T05:08:09.982Z,15.72
2018-11-25T05:10:39.204Z,16.70
2018-11-25T05:13:08.805Z,21.35
2018-11-25T05:15:37.988Z,19.92
2018-11-25T05:18:07.477Z,14.25
2018-11-25T05:20:36.668Z,15.55
2018-11-25T05:23:07.531Z,19.80
2018-11-25T05:25:36.739Z,14.53
2018-11-25T05:28:06.215Z,16.27
2018-11-25T05:30:35.440Z,16.30
2018-11-25T05:33:05.097Z,20.12
2018-11-25T05:35:34.985Z,15.93
2018-11-25T05:38:04.773Z,20.48
2018-11-25T05:40:34.210Z,17.98
2018-11-25T05:43:04.443Z,15.23
2018-11-25T05:45:34.291Z,14.78
2018-11-25T05:48:03.558Z,17.23
2018-11-25T05:50:33.008Z,17.85
2018-11-25T05:53:03.648Z,14.05
2018-11-25T05:55:32.867Z,12.45
2018-11-25T05:58:02.831Z,15.88
2018-11-25T06:00:33.064Z,16.02
2018-11-25T06:03:05.323Z,15.93
2018-11-25T06:05:34.523Z,18.75
2018-11-25T06:08:05.050Z,17.57
2018-11-25T06:10:34.275Z,16.50
2018-11-25T06:13:04.215Z,17.20
2018-11-25T06:15:33.697Z,15.23
2018-11-25T06:18:05.537Z,15.35
2018-11-25T06:20:38.970Z,14.45
2018-11-25T06:23:08.198Z,16.67
2018-11-25T06:25:37.660Z,17.15
2018-11-25T06:28:06.891Z,16.60
2018-11-25T06:30:36.350Z,16.67
2018-11-25T06:33:05.687Z,17.07
2018-11-25T06:35:35.891Z,15.23
2018-11-25T06:38:13.382Z,14.07
2018-11-25T06:40:43.339Z,20.50
2018-11-25T06:43:12.679Z,18.17
2018-11-25T06:45:42.895Z,14.23
2018-11-25T06:48:12.104Z,12.85
2018-11-25T06:50:41.364Z,15.05
2018-11-25T06:53:10.707Z,14.18
2018-11-25T06:55:39.989Z,16.35
2018-11-25T06:58:09.192Z,19.52
2018-11-25T07:00:38.726Z,14.35
2018-11-25T07:03:09.298Z,22.05
2018-11-25T07:05:40.204Z,17.85
2018-11-25T07:08:13.250Z,19.48
2018-11-25T07:10:42.674Z,15.80
2018-11-25T07:13:12.031Z,20.68
2018-11-25T07:15:41.744Z,16.02
2018-11-25T07:18:11.857Z,19.30
2018-11-25T07:20:41.176Z,20.57
2018-11-25T07:23:11.436Z,18.73
2018-11-25T07:25:40.680Z,18.57
2018-11-25T07:28:18.383Z,19.20
2018-11-25T07:30:40.051Z,20.48
2018-11-25T07:33:09.560Z,29.25
2018-11-25T07:35:38.902Z,18.23
2018-11-25T07:38:08.182Z,21.75
2018-11-25T07:40:38.488Z,23.15
2018-11-25T07:43:07.738Z,29.25
2018-11-25T07:45:36.931Z,40.35
2018-11-25T07:48:08.004Z,48.30
2018-11-25T07:50:37.252Z,46.68
2018-11-25T07:53:07.288Z,49.95
2018-11-25T07:55:36.791Z,42.55
2018-11-25T07:58:07.227Z,39.15
2018-11-25T08:00:36.499Z,34.80
2018-11-25T08:03:08.350Z,29.02
2018-11-25T08:05:37.609Z,40.85
2018-11-25T08:08:07.758Z,33.00
2018-11-25T08:10:38.247Z,35.15
2018-11-25T08:13:08.599Z,40.23
2018-11-25T08:15:38.104Z,32.88
2018-11-25T08:18:08.197Z,38.50
2018-11-25T08:20:37.399Z,47.17
2018-11-25T08:23:08.503Z,34.98
2018-11-25T08:25:37.757Z,42.62
2018-11-25T08:28:07.595Z,47.23
2018-11-25T08:30:36.801Z,55.17
2018-11-25T08:33:08.688Z,54.53
2018-11-25T08:35:37.874Z,46.20
2018-11-25T08:38:08.758Z,55.67
2018-11-25T08:40:38.008Z,49.88
2018-11-25T08:43:10.209Z,51.40
2018-11-25T08:45:40.333Z,41.20
2018-11-25T08:48:11.439Z,37.73
2018-11-25T08:50:41.652Z,45.17
2018-11-25T08:53:12.916Z,35.10
2018-11-25T08:55:42.738Z,32.85
2018-11-25T08:58:16.093Z,31.05
2018-11-25T09:00:45.819Z,36.40
2018-11-25T09:03:15.085Z,38.88
2018-11-25T09:05:44.424Z,38.48
2018-11-25T09:08:13.785Z,38.78
2018-11-25T09:10:44.178Z,40.38
2018-11-25T09:13:14.164Z,38.58
2018-11-25T09:15:43.352Z,32.63
2018-11-25T09:18:12.592Z,36.83
2018-11-25T09:20:42.509Z,41.53
2018-11-25T09:23:12.739Z,38.13
2018-11-25T09:25:42.326Z,38.63
2018-11-25T09:28:11.513Z,42.10
2018-11-25T09:30:40.981Z,35.80
2018-11-25T09:33:11.440Z,37.33
2018-11-25T09:35:41.656Z,38.55
2018-11-25T09:38:12.177Z,30.62
2018-11-25T09:40:42.049Z,32.05
2018-11-25T09:43:12.884Z,29.18
2018-11-25T09:46:12.381Z,29.40
2018-11-25T09:51:21.887Z,32.23
2018-11-25T09:53:50.989Z,31.77
2018-11-25T09:56:20.514Z,33.65
2018-11-25T09:58:49.724Z,32.95
2018-11-25T10:01:18.902Z,34.75
2018-11-25T10:03:49.504Z,37.73
2018-11-25T10:06:18.739Z,39.55
2018-11-25T10:08:48.745Z,34.27
2018-11-25T10:11:18.725Z,36.48
2018-11-25T10:13:47.933Z,34.00
2018-11-25T10:16:17.201Z,30.10
2018-11-25T10:18:46.923Z,31.25
2018-11-25T10:21:16.132Z,30.80
2018-11-25T10:23:45.402Z,28.20
2018-11-25T10:26:15.430Z,28.35
2018-11-25T10:28:45.948Z,29.35
2018-11-25T10:31:15.589Z,23.12
2018-11-25T10:33:46.785Z,26.33
2018-11-25T10:36:16.634Z,19.27
2018-11-25T10:38:46.075Z,22.27
2018-11-25T10:41:15.443Z,20.08
2018-11-25T10:43:44.649Z,24.87
2018-11-25T10:46:16.057Z,20.88
2018-11-25T10:48:45.298Z,25.23
2018-11-25T10:51:15.107Z,24.40
2018-11-25T10:53:44.333Z,21.35
2018-11-25T10:56:15.226Z,20.35
2018-11-25T10:58:44.463Z,19.42
2018-11-25T11:01:19.269Z,16.07
2018-11-25T11:03:55.242Z,16.20
2018-11-25T11:06:30.891Z,15.13
2018-11-25T11:09:00.224Z,16.97
2018-11-25T11:11:29.462Z,17.45
2018-11-25T11:14:06.779Z,14.43
2018-11-25T11:16:36.037Z,19.23
2018-11-25T11:19:05.434Z,20.65
2018-11-25T11:21:35.658Z,17.67
2018-11-25T11:24:05.521Z,16.25
2018-11-25T11:26:36.171Z,17.00
2018-11-25T11:29:06.130Z,14.45
2018-11-25T11:31:37.436Z,20.45
2018-11-25T11:34:06.678Z,15.63
2018-11-25T11:36:35.960Z,18.00
2018-11-25T11:39:07.786Z,16.02
2018-11-25T11:41:37.319Z,18.95
2018-11-25T11:44:06.639Z,18.45
2018-11-25T11:46:42.140Z,18.55
2018-11-25T11:49:11.606Z,20.32
2018-11-25T11:51:42.733Z,15.80
2018-11-25T11:54:12.416Z,18.20
2018-11-25T11:56:42.543Z,14.45
2018-11-25T11:59:11.853Z,18.10
2018-11-25T12:01:42.599Z,13.95
2018-11-25T12:04:11.801Z,17.02
2018-11-25T12:06:41.566Z,14.83
2018-11-25T12:09:11.213Z,16.75
2018-11-25T12:11:40.593Z,26.80
2018-11-25T12:14:10.628Z,31.70
2018-11-25T12:16:40.032Z,17.85
2018-11-25T12:19:09.379Z,14.85
2018-11-25T12:21:39.949Z,14.53
2018-11-25T12:24:09.234Z,15.60
2018-11-25T12:26:38.708Z,11.90
2018-11-25T12:29:07.950Z,15.25
2018-11-25T12:31:38.924Z,13.83
2018-11-25T12:34:08.240Z,15.85
2018-11-25T12:36:37.957Z,14.78
2018-11-25T12:39:09.075Z,13.55
2018-11-25T12:41:39.204Z,13.62
2018-11-25T12:44:09.122Z,14.10
2018-11-25T12:46:38.343Z,15.00
2018-11-25T12:49:08.441Z,14.20
2018-11-25T12:51:37.757Z,15.85
2018-11-25T12:54:07.060Z,14.55
2018-11-25T12:56:37.417Z,17.05
2018-11-25T12:59:06.677Z,15.60
2018-11-25T13:01:36.585Z,14.28
2018-11-25T13:04:06.237Z,13.88
2018-11-25T13:06:35.612Z,14.98
2018-11-25T13:09:07.021Z,16.02
2018-11-25T13:11:36.254Z,15.23
2018-11-25T13:14:05.874Z,13.78
2018-11-25T13:16:35.698Z,12.80
2018-11-25T13:19:05.137Z,13.62
2018-11-25T13:21:34.689Z,10.90
2018-11-25T13:24:04.283Z,18.65
2018-11-25T13:26:34.154Z,12.40
2018-11-25T13:29:03.872Z,12.80
2018-11-25T13:31:34.542Z,12.03
2018-11-25T13:34:04.444Z,12.07
2018-11-25T13:36:33.974Z,11.05
2018-11-25T13:39:04.405Z,10.50
2018-11-25T13:41:33.835Z,10.78
2018-11-25T13:44:03.117Z,11.10
2018-11-25T13:46:32.766Z,9.70
2018-11-25T13:49:02.632Z,13.03
2018-11-25T13:51:32.345Z,9.25
2018-11-25T13:54:01.870Z,9.50
2018-11-25T13:56:31.102Z,8.05
2018-11-25T13:59:00.273Z,7.60
2018-11-25T14:01:29.572Z,8.40
2018-11-25T14:03:58.755Z,7.83
2018-11-25T14:06:27.994Z,6.62
2018-11-25T14:08:57.331Z,5.72
2018-11-25T14:11:26.619Z,5.70
2018-11-25T14:13:55.852Z,5.45
2018-11-25T14:16:25.037Z,6.65
2018-11-25T14:18:56.097Z,5.33
2018-11-25T14:21:28.682Z,5.33
2018-11-25T14:23:57.874Z,6.87
2018-11-25T14:26:31.266Z,7.40
2018-11-25T14:29:00.463Z,6.80
2018-11-25T14:31:30.603Z,8.68
2018-11-25T14:34:00.788Z,6.92
2018-11-25T14:36:30.212Z,7.00
2018-11-25T14:38:59.477Z,6.20
2018-11-25T14:41:29.748Z,11.68
2018-11-25T14:44:01.784Z,8.20
2018-11-25T14:46:31.746Z,6.95
2018-11-25T14:49:02.090Z,8.75
2018-11-25T14:51:32.443Z,10.60
2018-11-25T14:54:06.999Z,15.30
2018-11-25T14:56:50.276Z,9.03
2018-11-25T14:59:23.743Z,10.80
2018-11-25T15:01:55.208Z,9.00
2018-11-25T15:04:24.525Z,13.72
2018-11-25T15:06:54.958Z,11.05
2018-11-25T15:09:25.017Z,11.05
2018-11-25T15:11:54.309Z,11.28
2018-11-25T15:14:24.415Z,12.23
2018-11-25T15:16:55.587Z,9.75
2018-11-25T15:19:27.290Z,10.48
2018-11-25T15:21:56.713Z,7.97
2018-11-25T15:24:26.772Z,7.37
2018-11-25T15:26:56.640Z,8.43
2018-11-25T15:29:25.891Z,9.78
2018-11-25T15:31:55.264Z,9.33
2018-11-25T15:34:25.751Z,10.15
2018-11-25T15:36:55.003Z,9.80
2018-11-25T15:39:25.545Z,14.40
2018-11-25T15:41:56.135Z,12.75
2018-11-25T15:44:26.460Z,17.32
2018-11-25T15:46:55.933Z,11.60
2018-11-25T15:49:26.057Z,12.15
2018-11-25T15:51:55.703Z,11.73
2018-11-25T15:54:25.836Z,14.50
2018-11-25T15:56:55.133Z,14.28
2018-11-25T15:59:25.158Z,15.20
2018-11-25T16:01:54.489Z,15.05
2018-11-25T16:04:24.928Z,11.75
2018-11-25T16:06:54.996Z,11.88
2018-11-25T16:09:24.257Z,14.50
2018-11-25T16:11:54.553Z,13.40
2018-11-25T16:14:27.642Z,12.50
2018-11-25T16:16:56.829Z,15.53
2018-11-25T16:19:27.787Z,15.15
2018-11-25T16:21:57.088Z,16.62
2018-11-25T16:26:20.691Z,16.17
2018-11-25T16:28:53.380Z,13.43
2018-11-25T16:31:22.894Z,15.98
2018-11-25T16:33:53.696Z,14.65
2018-11-25T16:36:22.945Z,13.53
2018-11-25T16:38:55.975Z,13.20
2018-11-25T16:41:27.504Z,15.08
2018-11-25T16:43:56.763Z,13.70
2018-11-25T16:46:28.999Z,13.78
2018-11-25T16:48:58.980Z,15.88
2018-11-25T16:51:29.329Z,11.45
2018-11-25T16:53:58.751Z,13.70
2018-11-25T16:56:28.188Z,13.25
2018-11-25T16:58:58.506Z,13.60
2018-11-25T17:01:28.736Z,13.43
2018-11-25T17:03:58.082Z,14.18
2018-11-25T17:06:27.714Z,16.25
2018-11-25T17:08:57.257Z,20.15
2018-11-25T17:11:26.544Z,14.90
2018-11-25T17:13:56.710Z,16.82
2018-11-25T17:16:26.108Z,15.72
2018-11-25T17:18:56.358Z,16.17
2018-11-25T17:21:25.625Z,18.98
2018-11-25T17:23:55.086Z,16.42
2018-11-25T17:26:24.707Z,17.10
2018-11-25T17:28:54.776Z,13.13
2018-11-25T17:31:24.481Z,19.10
2018-11-25T17:33:53.730Z,17.32
2018-11-25T17:36:23.289Z,19.62
2018-11-25T17:38:53.321Z,18.40
2018-11-25T17:41:22.888Z,18.35
2018-11-25T17:43:52.095Z,20.62
2018-11-25T17:46:22.971Z,22.00
2018-11-25T17:48:52.172Z,19.85
2018-11-25T17:51:21.425Z,19.75
2018-11-25T17:53:50.641Z,15.48
2018-11-25T17:56:20.608Z,19.40
2018-11-25T17:58:51.611Z,19.27
2018-11-25T18:01:22.411Z,13.55
2018-11-25T18:03:52.696Z,18.67
2018-11-25T18:06:23.498Z,18.75
2018-11-25T18:08:53.409Z,15.15
2018-11-25T18:11:23.140Z,20.12
2018-11-25T18:13:55.608Z,17.02
2018-11-25T18:16:25.284Z,14.18
2018-11-25T18:19:04.743Z,25.88
2018-11-25T18:21:37.803Z,12.68
2018-11-25T18:24:08.778Z,16.40
2018-11-25T18:26:38.350Z,17.67
2018-11-25T18:29:07.971Z,17.65
2018-11-25T18:31:37.275Z,17.37
2018-11-25T18:34:07.230Z,11.90
2018-11-25T18:36:36.916Z,14.25
2018-11-25T18:39:10.026Z,12.93
2018-11-25T18:41:40.099Z,10.35
2018-11-25T18:44:09.392Z,10.13
2018-11-25T18:46:46.300Z,14.53
2018-11-25T18:49:10.877Z,13.08
2018-11-25T18:51:40.277Z,11.57
2018-11-25T18:54:11.258Z,13.72
2018-11-25T18:56:40.495Z,12.03
2018-11-25T18:59:10.729Z,10.30
2018-11-25T19:02:43.238Z,12.73
2018-11-25T19:05:14.041Z,9.88
2018-11-25T19:07:43.330Z,10.10
2018-11-25T19:10:15.759Z,10.63
2018-11-25T19:12:46.529Z,12.20
2018-11-25T19:15:17.129Z,10.35
2018-11-25T19:17:47.103Z,9.73
2018-11-25T19:20:22.936Z,11.08
2018-11-25T19:22:52.534Z,9.85
2018-11-25T19:25:23.763Z,15.78
2018-11-25T19:27:53.969Z,14.20
2018-11-25T19:30:26.759Z,12.80
2018-11-25T19:32:52.682Z,10.85
2018-11-25T19:35:24.219Z,11.90
2018-11-25T19:37:54.486Z,10.90
2018-11-25T19:40:26.629Z,10.93
2018-11-25T19:42:56.537Z,15.55
2018-11-25T19:45:27.003Z,19.35
2018-11-25T19:47:57.343Z,17.92
2018-11-25T19:50:35.986Z,18.70
2018-11-25T19:53:08.192Z,19.85
2018-11-25T19:55:38.438Z,12.98
2018-11-25T19:58:08.659Z,12.82
2018-11-25T20:00:37.958Z,11.08
2018-11-25T20:03:08.555Z,13.93
2018-11-25T20:05:38.343Z,12.90
2018-11-25T20:08:08.877Z,14.55
2018-11-25T20:10:38.853Z,14.15
2018-11-25T20:13:09.573Z,14.33
2018-11-25T20:15:40.364Z,12.53
2018-11-25T20:18:10.800Z,16.25
2018-11-25T20:20:40.650Z,19.98
2018-11-25T20:23:10.843Z,16.70
2018-11-25T20:25:40.316Z,19.85
2018-11-25T20:28:10.427Z,28.02
2018-11-25T20:30:39.662Z,24.18
2018-11-25T20:34:14.494Z,22.67
2018-11-25T20:36:44.333Z,23.60
2018-11-25T20:39:19.130Z,27.10
2018-11-25T20:41:50.093Z,20.92
2018-11-25T20:44:20.006Z,28.83
2018-11-25T20:46:54.538Z,25.75
2018-11-25T20:49:24.894Z,25.48
2018-11-25T20:52:01.536Z,27.80
2018-11-25T20:54:31.832Z,27.15
2018-11-25T20:57:03.121Z,30.25
2018-11-25T20:59:32.382Z,25.90
2018-11-25T21:02:01.653Z,21.60
2018-11-25T21:04:31.362Z,24.65
2018-11-25T21:07:00.590Z,23.75
2018-11-25T21:09:37.371Z,25.55
2018-11-25T21:12:11.689Z,22.98
2018-11-25T21:14:41.479Z,22.32
2018-11-25T21:17:10.685Z,24.37
2018-11-25T21:19:40.419Z,28.38
2018-11-25T21:22:09.901Z,25.20
2018-11-25T21:24:40.930Z,28.20
2018-11-25T21:27:10.192Z,24.05
2018-11-25T21:29:41.870Z,30.62
2018-11-25T21:32:12.782Z,28.20
2018-11-25T21:34:41.956Z,26.27
2018-11-25T21:37:11.734Z,24.35
2018-11-25T21:39:42.053Z,23.67
2018-11-25T21:42:11.286Z,21.25
2018-11-25T21:44:42.423Z,22.75
2018-11-25T21:47:11.841Z,24.67
2018-11-25T21:49:42.697Z,24.82
2018-11-25T21:52:14.735Z,24.63
2018-11-25T21:54:44.298Z,21.57
2018-11-25T21:57:14.661Z,30.30
2018-11-25T21:59:43.860Z,26.25
2018-11-25T22:02:15.595Z,25.72
2018-11-25T22:04:46.420Z,24.10
2018-11-25T22:07:16.262Z,26.30
2018-11-25T22:09:45.457Z,26.80
2018-11-25T22:12:18.917Z,21.90
2018-11-25T22:14:48.174Z,25.37
2018-11-25T22:17:20.574Z,21.35
2018-11-25T22:19:49.731Z,23.62
2018-11-25T22:22:18.953Z,28.40
2018-11-25T22:24:48.493Z,25.40
2018-11-25T22:27:17.687Z,22.95
2018-11-25T22:29:49.836Z,21.25
2018-11-25T22:32:20.972Z,25.15
2018-11-25T22:34:50.209Z,21.25
2018-11-25T22:37:19.863Z,18.92
2018-11-25T22:39:53.786Z,24.07
2018-11-25T22:42:23.921Z,21.52
2018-11-25T22:44:53.147Z,27.30
2018-11-25T22:47:25.096Z,24.12
2018-11-25T22:49:54.437Z,24.63
2018-11-25T22:52:24.887Z,21.93
2018-11-25T22:54:54.237Z,23.73
2018-11-25T22:57:24.043Z,21.12
2018-11-25T22:59:53.263Z,23.87
2018-11-25T23:02:24.641Z,22.32
2018-11-25T23:05:04.978Z,24.52
2018-11-25T23:07:34.243Z,27.27
2018-11-25T23:10:03.847Z,19.32
2018-11-25T23:12:33.205Z,24.18
2018-11-25T23:15:02.417Z,23.90
2018-11-25T23:17:32.385Z,21.33
2018-11-25T23:20:01.623Z,25.35
2018-11-25T23:22:36.175Z,18.52
2018-11-25T23:25:05.728Z,23.80
2018-11-25T23:27:34.977Z,23.70
2018-11-25T23:30:05.221Z,24.82
2018-11-25T23:32:34.643Z,22.00
2018-11-25T23:35:09.011Z,20.88
2018-11-25T23:37:39.313Z,28.55
2018-11-25T23:40:09.768Z,23.38
2018-11-25T23:42:39.213Z,20.75
2018-11-25T23:45:12.665Z,23.02
2018-11-25T23:47:42.367Z,24.07
2018-11-25T23:50:13.977Z,20.97
2018-11-25T23:52:45.458Z,26.42
2018-11-25T23:55:15.245Z,23.32
2018-11-25T23:57:46.323Z,21.82
